createdAt,value
2023-02-11T00:01:12.418Z,102526.23
2023-02-11T00:03:46.035Z,102517.70
2023-02-11T00:06:20.289Z,102521.13
2023-02-11T00:08:54.261Z,102528.09
2023-02-11T00:11:31.178Z,102529.88
2023-02-11T00:14:08.379Z,102526.53
2023-02-11T00:16:42.570Z,102520.48
2023-02-11T00:19:16.611Z,102524.02
2023-02-11T00:21:50.586Z,102518.02
2023-02-11T00:24:24.747Z,102510.27
2023-02-11T00:26:58.342Z,102512.94
2023-02-11T00:29:31.947Z,102517.31
2023-02-11T00:32:06.160Z,102519.96
2023-02-11T00:34:40.221Z,102509.62
2023-02-11T00:37:14.081Z,102515.75
2023-02-11T00:39:50.442Z,102509.78
2023-02-11T00:42:24.440Z,102505.48
2023-02-11T00:44:58.313Z,102506.38
2023-02-11T00:47:32.505Z,102508.16
2023-02-11T00:50:08.528Z,102513.41
2023-02-11T00:52:42.793Z,102513.41
2023-02-11T00:55:17.252Z,102509.17
2023-02-11T00:57:51.939Z,102516.97
2023-02-11T01:00:25.778Z,102511.87
2023-02-11T01:02:59.781Z,102507.57
2023-02-11T01:05:33.895Z,102508.52
2023-02-11T01:08:08.712Z,102504.25
2023-02-11T01:10:44.292Z,102512.09
2023-02-11T01:13:17.869Z,102502.67
2023-02-11T01:15:51.591Z,102506.16
2023-02-11T01:18:25.542Z,102501.94
2023-02-11T01:20:59.689Z,102496.83
2023-02-11T01:23:33.913Z,102495.13
2023-02-11T01:26:08.421Z,102501.25
2023-02-11T01:28:42.327Z,102493.53
2023-02-11T01:31:15.858Z,102487.54
2023-02-11T01:33:49.307Z,102484.97
2023-02-11T01:36:23.745Z,102485.05
2023-02-11T01:38:57.366Z,102494.59
2023-02-11T01:41:32.171Z,102482.59
2023-02-11T01:44:27.039Z,102485.19
2023-02-11T01:47:01.172Z,102477.55
2023-02-11T01:49:37.913Z,102476.73
2023-02-11T01:52:16.419Z,102475.92
2023-02-11T01:55:11.366Z,102475.94
2023-02-11T01:57:48.744Z,102475.13
2023-02-11T02:00:26.880Z,102475.20
2023-02-11T02:03:06.383Z,102476.09
2023-02-11T02:05:46.790Z,102475.25
2023-02-11T02:08:24.760Z,102481.27
2023-02-11T02:11:01.075Z,102478.67
2023-02-11T02:13:36.285Z,102478.73
2023-02-11T02:16:14.377Z,102483.85
2023-02-11T02:18:57.988Z,102482.13
2023-02-11T02:22:00.864Z,102483.91
2023-02-11T02:25:01.535Z,102480.43
2023-02-11T02:27:46.360Z,102476.06
2023-02-11T02:30:58.984Z,102482.06
2023-02-11T02:33:44.359Z,102483.71
2023-02-11T02:36:25.333Z,102481.91
2023-02-11T02:39:03.128Z,102482.59
2023-02-11T02:41:39.413Z,102485.91
2023-02-11T02:44:13.353Z,102488.45
2023-02-11T02:46:47.535Z,102478.91
2023-02-11T02:49:21.711Z,102475.41
2023-02-11T02:52:13.743Z,102484.01
2023-02-11T02:55:08.850Z,102486.60
2023-02-11T02:57:58.437Z,102484.90
2023-02-11T03:00:38.663Z,102481.55
2023-02-11T03:03:25.013Z,102488.45
2023-02-11T03:06:05.179Z,102475.58
2023-02-11T03:08:45.278Z,102470.47
2023-02-11T03:11:21.808Z,102470.53
2023-02-11T03:13:57.604Z,102480.07
2023-02-11T03:16:36.495Z,102479.20
2023-02-11T03:19:15.020Z,102473.28
2023-02-11T03:21:51.861Z,102474.22
2023-02-11T03:24:30.776Z,102469.95
2023-02-11T03:27:09.650Z,102470.00
2023-02-11T03:29:52.056Z,102471.80
2023-02-11T03:32:30.339Z,102462.40
2023-02-11T03:35:09.318Z,102465.04
2023-02-11T03:37:50.259Z,102461.64
2023-02-11T03:40:27.671Z,102463.36
2023-02-11T03:43:05.012Z,102459.94
2023-02-11T03:45:40.975Z,102458.25
2023-02-11T03:48:20.572Z,102454.02
2023-02-11T03:50:56.831Z,102458.38
2023-02-11T03:53:30.970Z,102457.58
2023-02-11T03:56:09.421Z,102463.64
2023-02-11T03:58:45.620Z,102464.59
2023-02-11T04:01:19.443Z,102452.59
2023-02-11T04:03:53.084Z,102458.67
2023-02-11T04:06:27.297Z,102450.98
2023-02-11T04:09:01.094Z,102443.34
2023-02-11T04:11:35.182Z,102451.93
2023-02-11T04:14:09.517Z,102452.86
2023-02-11T04:16:43.293Z,102453.77
2023-02-11T04:19:17.124Z,102439.19
2023-02-11T04:21:51.343Z,102439.25
2023-02-11T04:24:25.764Z,102437.56
2023-02-11T04:26:59.432Z,102428.17
2023-02-11T04:29:33.537Z,102437.70
2023-02-11T04:32:07.239Z,102434.30
2023-02-11T04:34:41.821Z,102431.77
2023-02-11T04:37:16.673Z,102433.47
2023-02-11T04:39:50.834Z,102437.88
2023-02-11T04:42:25.307Z,102431.91
2023-02-11T04:44:59.180Z,102428.56
2023-02-11T04:47:32.872Z,102442.36
2023-02-11T04:50:07.175Z,102432.96
2023-02-11T04:52:40.974Z,102445.06
2023-02-11T04:55:15.162Z,102458.89
2023-02-11T04:57:48.954Z,102449.48
2023-02-11T05:00:22.813Z,102450.37
2023-02-11T05:02:57.114Z,102459.88
2023-02-11T05:05:31.168Z,102458.23
2023-02-11T05:08:05.334Z,102458.30
2023-02-11T05:10:39.604Z,102463.48
2023-02-11T05:13:13.965Z,102460.13
2023-02-11T05:15:46.852Z,102455.84
2023-02-11T05:18:20.769Z,102457.66
2023-02-11T05:20:54.358Z,102461.14
2023-02-11T05:23:28.385Z,102468.93
2023-02-11T05:26:02.369Z,102473.28
2023-02-11T05:28:36.298Z,102482.80
2023-02-11T05:31:10.566Z,102485.42
2023-02-11T05:33:44.571Z,102480.33
2023-02-11T05:36:19.044Z,102486.31
2023-02-11T05:38:53.263Z,102488.13
2023-02-11T05:41:27.237Z,102501.04
2023-02-11T05:44:01.452Z,102505.34
2023-02-11T05:46:35.145Z,102502.75
2023-02-11T05:49:09.057Z,102493.30
2023-02-11T05:51:42.955Z,102493.30
2023-02-11T05:54:17.121Z,102487.35
2023-02-11T05:56:51.901Z,102489.89
2023-02-11T05:59:26.729Z,102491.64
2023-02-11T06:02:00.822Z,102490.77
2023-02-11T06:04:35.154Z,102489.89
2023-02-11T06:07:09.235Z,102489.06
2023-02-11T06:09:43.082Z,102480.48
2023-02-11T06:12:17.387Z,102487.31
2023-02-11T06:14:51.802Z,102487.31
2023-02-11T06:17:26.400Z,102493.30
2023-02-11T06:20:01.037Z,102491.55
2023-02-11T06:22:35.078Z,102489.78
2023-02-11T06:25:11.434Z,102495.81
2023-02-11T06:27:44.922Z,102494.94
2023-02-11T06:30:19.805Z,102493.19
2023-02-11T06:32:53.660Z,102490.59
2023-02-11T06:35:27.967Z,102494.89
2023-02-11T06:38:01.979Z,102485.42
2023-02-11T06:40:36.596Z,102490.55
2023-02-11T06:43:10.713Z,102486.21
2023-02-11T06:45:44.412Z,102492.19
2023-02-11T06:48:17.862Z,102487.84
2023-02-11T06:50:52.220Z,102484.34
2023-02-11T06:53:26.025Z,102473.11
2023-02-11T06:56:03.266Z,102475.69
2023-02-11T06:58:37.283Z,102475.62
2023-02-11T07:01:14.608Z,102477.23
2023-02-11T07:03:48.895Z,102469.46
2023-02-11T07:06:24.878Z,102468.53
2023-02-11T07:08:59.497Z,102461.60
2023-02-11T07:11:34.687Z,102458.95
2023-02-11T07:14:09.887Z,102451.19
2023-02-11T07:16:43.368Z,102441.60
2023-02-11T07:19:17.781Z,102441.53
2023-02-11T07:21:51.588Z,102437.19
2023-02-11T07:24:25.395Z,102441.36
2023-02-11T07:26:59.875Z,102436.11
2023-02-11T07:29:33.887Z,102433.41
2023-02-11T07:32:07.878Z,102438.50
2023-02-11T07:34:41.893Z,102433.19
2023-02-11T07:37:16.254Z,102428.77
2023-02-11T07:39:50.473Z,102437.23
2023-02-11T07:42:24.471Z,102437.97
2023-02-11T07:44:58.177Z,102440.42
2023-02-11T07:47:32.299Z,102442.03
2023-02-11T07:50:07.121Z,102441.00
2023-02-11T07:52:41.200Z,102439.11
2023-02-11T07:55:15.543Z,102432.08
2023-02-11T07:57:49.157Z,102435.34
2023-02-11T08:00:23.761Z,102437.83
2023-02-11T08:02:58.658Z,102438.44
2023-02-11T08:05:33.214Z,102447.73
2023-02-11T08:08:07.663Z,102444.06
2023-02-11T08:10:41.635Z,102443.83
2023-02-11T08:13:15.715Z,102431.53
2023-02-11T08:15:48.925Z,102430.47
2023-02-11T08:18:22.806Z,102431.12
2023-02-11T08:20:57.468Z,102431.70
2023-02-11T08:23:31.266Z,102428.05
2023-02-11T08:26:07.171Z,102425.20
2023-02-11T08:28:42.507Z,102427.56
2023-02-11T08:31:19.269Z,102427.33
2023-02-11T08:33:54.814Z,102427.13
2023-02-11T08:36:30.233Z,102427.69
2023-02-11T08:39:17.950Z,102419.63
2023-02-11T08:41:54.629Z,102422.72
2023-02-11T08:44:28.594Z,102421.38
2023-02-11T08:47:02.535Z,102419.20
2023-02-11T08:49:36.656Z,102423.89
2023-02-11T08:52:10.548Z,102418.16
2023-02-11T08:54:44.426Z,102419.38
